Santa Paula, California
Current Conditions -  °F | °C
As of 7:55 PM on Thursday 18 Dec 2014 (Local Time) from KCMA Reporting Station
Clear Clear  
Wind Chill: 12°   Ceiling: Unl
Heat Index: 12°   Visibility: 10mi
Dew Point:   Wind: 5mph
Humidity: 83%   Direction: 70°ENE
Pressure: 30.2"   Gusts: NA
Location:  34.35°N, 119.05°W
Report Text: KCMA 190355Z 07004KT 10SM CLR 12/09 A3020 RMK AO2 SLP236 T01170089
Loading
Personal Weather Stations






























Interactive Weather Map New forecast layout! Learn more

10-Day Weather Forecast

Advertisements
Track Severe Weather on mobile